Latest Weather Observations for Adelaide Airport

IDS60801

Issued at 12:01 am CST Sunday 31 July 2016 (issued every 30 minutes, with the page automatically refreshed every 10 minutes)

About weather observations | Map of weather stations | Latest weather observations for SA | Other Formats
Station Details ID: 023034 Name: ADELAIDE AIRPORT Lat: -34.95 Lon: 138.52 Height: 2.0 m
Data from the previous 72 hours. | See also: Recent months at Adelaide Airport
Date/Time
CST
Temp
°C
App
Temp
°C
Dew
Point
°C
Rel
Hum
%
Delta-T
°C
Wind Press
QNH
hPa
Press
MSL
hPa
Rain since
9am
mm
Dir  Spd
km/h
Gust
km/h
Spd
kts
Gust
kts
30/11:30pm 13.7 11.9 10.8 83 1.5 NNW 11 15 6 8 1016.3 1016.3 3.0
30/11:00pm 13.8 12.2 10.1 78 1.9 NNE 9 11 5 6 1016.3 1016.3 3.0
30/10:30pm 13.1 11.6 10.4 84 1.4 ENE 9 13 5 7 1016.4 1016.4 3.0
30/10:00pm 13.7 11.2 9.6 76 2.1 NNE 13 15 7 8 1016.2 1016.2 3.0
30/09:30pm 13.3 10.8 9.8 79 1.8 NNE 13 20 7 11 1016.1 1016.1 3.0
30/09:00pm 13.2 10.8 9.9 80 1.7 NE 13 17 7 9 1015.8 1015.8 3.0
30/08:30pm 13.2 10.0 9.9 80 1.7 NNE 17 19 9 10 1015.5 1015.5 3.0
30/08:00pm 13.0 9.8 10.1 82 1.5 NE 17 19 9 10 1015.2 1015.2 3.0
30/07:30pm 12.6 9.9 10.5 87 1.1 NE 15 19 8 10 1015.1 1015.1 3.0
30/07:00pm 12.5 10.2 10.6 88 1.0 ENE 13 19 7 10 1015.4 1015.4 2.8
30/06:30pm 12.7 9.2 10.8 88 1.0 NE 20 26 11 14 1015.1 1015.1 2.8
30/06:00pm 13.3 10.9 10.2 81 1.6 N 13 20 7 11 1015.8 1015.8 2.0
30/05:30pm 14.0 11.0 9.3 73 2.4 N 15 26 8 14 1015.4 1015.4 1.0
30/05:00pm 14.8 12.0 8.7 67 3.1 N 13 17 7 9 1014.9 1014.9 0.2
30/04:30pm 15.8 11.5 6.8 55 4.4 NNE 19 26 10 14 1014.2 1014.2 0.0
30/04:00pm 15.9 11.0 7.0 55 4.4 N 22 33 12 18 1014.0 1014.0 0.0
30/03:30pm 16.2 11.7 6.9 54 4.6 N 20 32 11 17 1014.1 1014.1 0.0
30/03:00pm 16.2 11.0 7.1 55 4.5 N 24 32 13 17 1013.3 1013.3 0.0
30/02:30pm 15.9 9.9 7.0 55 4.4 N 28 35 15 19 1012.9 1012.9 0.0
30/02:00pm 16.1 9.5 6.2 52 4.8 N 30 43 16 23 1013.8 1013.8 0.0
30/01:30pm 15.9 10.4 5.9 51 4.8 N 24 32 13 17 1014.5 1014.5 0.0
30/01:00pm 15.9 8.9 5.9 51 4.8 N 32 44 17 24 1015.0 1015.0 0.0
30/12:30pm 16.1 9.0 5.4 49 5.1 N 32 44 17 24 1015.3 1015.3 0.0
30/12:00pm 15.9 8.1 5.1 48 5.1 N 35 46 19 25 1016.0 1016.0 0.0
30/11:30am 16.1 8.2 4.3 45 5.5 N 35 46 19 25 1016.5 1016.5 0.0
30/11:00am 15.8 8.5 4.7 47 5.2 N 32 43 17 23 1016.7 1016.7 0.0
30/10:36am 15.2 8.0 5.0 50 4.8 N 32 50 17 27 1017.3 1017.3 0.0
30/10:30am 14.9 7.6 4.6 50 4.8 N 32 43 17 23 1017.4 1017.4 0.0
30/10:00am 14.4 7.5 4.4 51 4.6 N 30 48 16 26 1017.6 1017.6 0.0
30/09:30am 13.7 6.7 4.3 53 4.3 N 30 41 16 22 1017.8 1017.8 0.0
30/09:00am 14.0 7.4 4.4 52 4.4 N 28 37 15 20 1018.0 1018.0 0.0
30/08:30am 12.6 6.5 4.7 58 3.6 N 26 32 14 17 1018.3 1018.3 0.0
30/08:00am 12.2 6.5 4.7 60 3.4 NNE 24 32 13 17 1018.3 1018.3 0.0
30/07:30am 11.4 6.1 5.0 65 2.9 NNE 22 28 12 15 1018.4 1018.4 0.0
30/07:00am 11.6 6.9 5.0 64 3.0 NNE 19 24 10 13 1018.4 1018.4 0.0
30/06:30am 12.1 7.2 5.1 62 3.2 NNE 20 28 11 15 1018.6 1018.6 0.0
30/06:00am 11.9 7.1 5.6 65 2.9 NNE 20 28 11 15 1018.7 1018.7 0.0
30/05:30am 11.9 7.3 5.6 65 2.9 NNE 19 22 10 12 1018.9 1018.9 0.0
30/05:00am 11.6 7.1 6.0 68 2.6 NNE 19 22 10 12 1018.9 1018.9 0.0
30/04:30am 10.0 6.4 6.6 79 1.6 NE 15 15 8 8 1019.0 1019.0 0.0
30/04:00am 10.3 6.7 6.7 78 1.7 NE 15 17 8 9 1019.4 1019.4 0.0
30/03:30am 10.0 6.4 6.8 80 1.5 NE 15 17 8 9 1019.7 1019.7 0.0
30/03:00am 10.0 6.4 6.8 80 1.5 NE 15 17 8 9 1020.0 1020.0 0.0
30/02:30am 10.6 6.9 6.5 76 1.9 NE 15 17 8 9 1020.3 1020.3 0.0
30/02:00am 10.3 6.7 6.7 78 1.7 NE 15 17 8 9 1020.6 1020.6 0.0
30/01:30am 9.3 6.1 6.9 85 1.1 NE 13 15 7 8 1020.9 1020.9 0.0
30/01:00am 9.5 6.4 7.2 85 1.1 NE 13 15 7 8 1021.3 1021.3 0.0
30/12:30am 10.6 7.1 7.2 79 1.6 NE 15 17 8 9 1021.5 1021.5 0.0
30/12:00am 10.5 7.5 7.6 82 1.4 NE 13 17 7 9 1021.7 1021.7 0.0
 
Date/Time
CST
Temp
°C
App
Temp
°C
Dew
Point
°C
Rel
Hum
%
Delta-T
°C
Wind Press
QNH
hPa
Press
MSL
hPa
Rain since
9am
mm
Dir  Spd
km/h
Gust
km/h
Spd
kts
Gust
kts
29/11:30pm 11.2 8.3 8.1 81 1.5 NNE 13 15 7 8 1022.1 1022.1 0.0
29/11:00pm 11.5 9.4 8.4 81 1.5 NE 9 11 5 6 1022.4 1022.4 0.0
29/10:30pm 11.5 8.7 8.4 81 1.5 NNE 13 15 7 8 1022.3 1022.3 0.0
29/10:00pm 11.5 8.7 8.7 83 1.4 NE 13 15 7 8 1022.5 1022.5 0.0
29/09:30pm 11.2 8.5 8.8 85 1.2 NE 13 15 7 8 1022.7 1022.7 0.0
29/09:00pm 11.3 8.9 8.7 84 1.3 NE 11 13 6 7 1022.7 1022.7 0.0
29/08:30pm 12.0 8.9 8.8 81 1.6 NE 15 15 8 8 1022.6 1022.6 0.0
29/08:00pm 12.5 9.8 8.9 79 1.8 NE 13 15 7 8 1022.7 1022.7 0.0
29/07:30pm 12.0 9.3 8.8 81 1.6 ENE 13 15 7 8 1022.5 1022.5 0.0
29/07:00pm 12.9 10.5 8.7 75 2.1 NE 11 13 6 7 1022.6 1022.6 0.0
29/06:30pm 13.0 10.6 8.6 74 2.2 NE 11 13 6 7 1022.3 1022.3 0.0
29/06:00pm 13.6 10.8 8.6 72 2.5 NE 13 17 7 9 1022.1 1022.1 0.0
29/05:30pm 13.8 11.3 8.4 70 2.7 NNE 11 15 6 8 1022.2 1022.2 0.0
29/05:00pm 14.5 12.1 8.5 67 3.0 N 11 15 6 8 1022.3 1022.3 0.0
29/04:30pm 14.5 11.7 8.5 67 3.0 N 13 17 7 9 1022.3 1022.3 0.0
29/04:00pm 14.6 12.4 7.9 64 3.3 NNW 9 13 5 7 1022.7 1022.7 0.0
29/03:30pm 14.7 12.2 8.3 65 3.2 NNW 11 15 6 8 1022.8 1022.8 0.0
29/03:00pm 13.8 11.3 8.4 70 2.7 NW 11 15 6 8 1022.9 1022.9 0.0
29/02:30pm 13.9 10.9 7.8 66 3.0 NW 13 19 7 10 1023.2 1023.2 0.0
29/02:00pm 14.1 11.5 7.6 65 3.2 NNW 11 15 6 8 1023.4 1023.4 0.0
29/01:30pm 14.1 11.5 7.6 65 3.2 NW 11 15 6 8 1023.8 1023.8 0.0
29/01:00pm 13.1 8.9 7.5 69 2.7 NW 19 26 10 14 1024.6 1024.6 0.0
29/12:30pm 13.9 10.8 7.1 63 3.3 NNW 13 19 7 10 1024.6 1024.6 0.0
29/12:00pm 12.9 9.4 7.3 69 2.7 NW 15 19 8 10 1025.0 1025.0 0.0
29/11:30am 13.4 10.3 7.4 67 2.9 N 13 19 7 10 1025.2 1025.2 0.0
29/11:00am 13.0 10.0 7.7 70 2.6 N 13 15 7 8 1025.4 1025.4 0.0
29/10:30am 12.3 9.2 7.3 71 2.4 N 13 17 7 9 1025.9 1025.9 0.0
29/10:00am 11.5 8.5 7.5 76 1.9 N 13 15 7 8 1025.9 1025.9 0.0
29/09:30am 11.4 8.3 7.4 76 1.9 NNE 13 15 7 8 1026.1 1026.1 0.0
29/09:00am 10.8 8.4 7.2 78 1.7 N 9 11 5 6 1026.2 1026.2 0.2
29/08:30am 10.2 8.0 7.7 84 1.2 N 9 9 5 5 1026.1 1026.1 0.2
29/08:00am 10.1 7.8 7.6 84 1.2 NNE 9 15 5 8 1026.0 1026.0 0.2
29/07:30am 10.0 7.3 7.5 84 1.2 NNE 11 17 6 9 1025.9 1025.9 0.2
29/07:00am 10.0 7.0 7.7 86 1.1 NNE 13 19 7 10 1025.7 1025.7 0.2
29/06:30am 10.0 7.1 8.1 88 0.9 NNE 13 19 7 10 1025.4 1025.4 0.2
29/06:00am 9.9 6.3 8.2 89 0.8 NNE 17 20 9 11 1024.9 1024.9 0.2
29/05:30am 9.9 7.1 8.5 91 0.7 NNE 13 17 7 9 1025.0 1025.0 0.2
29/05:00am 10.1 7.7 8.7 91 0.7 NNE 11 15 6 8 1025.2 1025.2 0.2
29/04:30am 10.1 7.3 8.7 91 0.7 NNE 13 15 7 8 1025.1 1025.1 0.0
29/04:00am 10.1 7.8 8.9 92 0.6 N 11 13 6 7 1025.4 1025.4 0.0
29/03:30am 10.1 7.9 9.3 95 0.4 NNE 11 13 6 7 1025.3 1025.3 0.0
29/03:00am 10.2 8.4 9.4 95 0.4 N 9 13 5 7 1025.5 1025.5 0.0
29/02:30am 10.4 8.2 9.4 93 0.5 NNE 11 13 6 7 1025.6 1025.6 0.0
29/02:00am 10.5 7.8 9.1 91 0.7 NNE 13 17 7 9 1025.7 1025.7 0.0
29/01:30am 10.6 8.4 9.2 91 0.7 N 11 17 6 9 1026.0 1026.0 0.0
29/01:00am 10.6 8.4 9.4 92 0.6 NNW 11 13 6 7 1026.1 1026.1 0.0
29/12:54am 10.5 8.4 9.7 95 0.4 NNW 11 17 6 9 1026.1 1026.1 0.0
29/12:30am 10.7 7.0 9.3 91 0.7 NW 19 28 10 15 1026.4 1026.4 0.0
29/12:13am 10.8 7.1 9.4 91 0.7 NW 19 22 10 12 1026.7 1026.7 0.0
29/12:00am 10.8 7.1 9.6 92 0.6 NW 19 24 10 13 1026.6 1026.6 0.0
 
Date/Time
CST
Temp
°C
App
Temp
°C
Dew
Point
°C
Rel
Hum
%
Delta-T
°C
Wind Press
QNH
hPa
Press
MSL
hPa
Rain since
9am
mm
Dir  Spd
km/h
Gust
km/h
Spd
kts
Gust
kts
28/11:51pm 11.1 8.6 9.7 91 0.7 NNW 13 20 7 11 1026.7 1026.7 0.0
28/11:43pm 11.1 8.6 9.7 91 0.7 NNW 13 17 7 9 1026.8 1026.8 0.0
28/11:30pm 11.3 8.7 9.5 89 0.9 NW 13 17 7 9 1026.9 1026.9 0.0
28/11:00pm 11.3 8.5 8.4 82 1.4 N 13 17 7 9 1026.6 1026.6 0.0
28/10:30pm 11.2 8.4 8.5 83 1.3 N 13 15 7 8 1026.6 1026.6 0.0
28/10:00pm 11.2 8.4 8.5 83 1.3 NNW 13 17 7 9 1026.8 1026.8 0.0
28/09:30pm 11.3 8.5 8.4 82 1.4 NNW 13 17 7 9 1026.8 1026.8 0.0
28/09:00pm 11.4 9.2 7.9 79 1.7 NW 9 13 5 7 1027.1 1027.1 0.0
28/08:30pm 11.6 7.8 7.4 75 2.0 WNW 17 22 9 12 1027.3 1027.3 0.0
28/08:00pm 12.0 8.0 8.3 78 1.8 WNW 19 24 10 13 1027.5 1027.5 0.0
28/07:30pm 12.3 8.6 8.0 75 2.1 WNW 17 22 9 12 1027.5 1027.5 0.0
28/07:00pm 12.3 8.4 8.7 79 1.8 WNW 19 24 10 13 1027.4 1027.4 0.0
28/06:30pm 12.3 9.7 9.3 82 1.5 NW 13 19 7 10 1027.2 1027.2 0.0
28/06:00pm 12.5 9.5 9.1 80 1.7 NW 15 20 8 11 1027.2 1027.2 0.0
28/05:30pm 12.5 9.1 9.1 80 1.7 NNW 17 22 9 12 1027.1 1027.1 0.0
28/05:00pm 12.6 9.2 9.0 79 1.8 NW 17 20 9 11 1027.2 1027.2 0.0
28/04:30pm 12.7 8.8 8.7 76 2.0 NW 19 24 10 13 1027.0 1027.0 0.0
28/04:00pm 12.9 9.4 8.7 75 2.1 NNW 17 24 9 13 1027.1 1027.1 0.0
28/03:30pm 13.3 9.2 7.8 69 2.7 NNW 19 26 10 14 1027.2 1027.2 0.0
28/03:00pm 13.3 8.8 8.5 72 2.4 NW 22 28 12 15 1027.2 1027.2 0.0
28/02:30pm 13.3 9.4 8.5 72 2.4 NW 19 26 10 14 1027.2 1027.2 0.0
28/02:00pm 12.7 9.3 9.3 80 1.7 NNW 17 24 9 13 1027.5 1027.5 0.0
28/01:30pm 12.5 9.4 10.2 86 1.2 NW 17 20 9 11 1027.8 1027.8 0.0
28/01:00pm 12.9 9.6 9.5 80 1.7 NNW 17 22 9 12 1027.9 1027.9 0.0
28/12:30pm 12.6 8.9 9.6 82 1.5 NNW 19 24 10 13 1028.2 1028.2 0.0
28/12:00pm 12.5 8.9 9.7 83 1.4 NNW 19 24 10 13 1028.6 1028.6 0.0
28/11:30am 13.1 9.4 10.0 81 1.6 NW 20 30 11 16 1029.1 1029.1 0.0
28/11:00am 13.1 9.5 9.8 80 1.7 NNW 19 26 10 14 1029.4 1029.4 0.0
28/10:30am 12.8 9.6 9.8 82 1.5 NW 17 24 9 13 1029.5 1029.5 0.0
28/10:00am 12.7 8.9 9.9 83 1.4 NW 20 26 11 14 1029.4 1029.4 0.0
28/09:30am 11.9 8.1 9.7 86 1.1 WNW 20 32 11 17 1029.5 1029.5 0.0
28/09:00am 12.2 8.9 9.6 84 1.3 NW 17 22 9 12 1029.3 1029.3 0.0
28/08:30am 11.9 9.0 9.7 86 1.1 NW 15 22 8 12 1029.1 1029.1 0.0
28/08:00am 11.3 7.9 9.3 87 1.0 NW 17 22 9 12 1028.9 1028.9 0.0
28/07:30am 11.6 9.4 9.4 86 1.1 WNW 11 15 6 8 1028.6 1028.6 0.0
28/07:00am 11.4 8.8 9.4 87 1.0 NW 13 17 7 9 1028.2 1028.2 0.0
28/06:30am 11.2 9.1 9.6 90 0.8 NW 11 13 6 7 1028.1 1028.1 0.0
28/06:00am 11.0 8.8 9.4 90 0.8 WNW 11 15 6 8 1027.8 1027.8 0.0
28/05:30am 11.6 8.5 9.0 84 1.3 NW 15 19 8 10 1027.7 1027.7 0.0
28/05:00am 11.8 7.9 8.8 82 1.5 WNW 19 24 10 13 1027.4 1027.4 0.0
28/04:30am 12.1 8.1 8.2 77 1.9 WNW 19 24 10 13 1027.4 1027.4 0.0
28/04:00am 12.2 7.8 7.4 72 2.3 WNW 20 26 11 14 1027.4 1027.4 0.0
28/03:30am 12.1 8.8 8.0 76 2.0 WNW 15 20 8 11 1027.4 1027.4 0.0
28/03:00am 12.1 8.1 8.2 77 1.9 WNW 19 26 10 14 1027.4 1027.4 0.0
28/02:30am 12.2 8.3 8.5 78 1.8 WNW 19 22 10 12 1027.6 1027.6 0.0
28/02:00am 12.3 9.0 8.0 75 2.1 WNW 15 22 8 12 1027.8 1027.8 0.0
28/01:30am 12.3 8.1 8.2 76 2.0 WNW 20 28 11 15 1027.6 1027.6 0.0
28/01:00am 12.3 8.5 7.5 72 2.3 WNW 17 22 9 12 1027.3 1027.3 0.0
28/12:30am 12.3 8.6 7.8 74 2.2 WNW 17 20 9 11 1027.2 1027.2 0.0

Other Formats:

Comma delimited format used in spreadsheet applications
http://www.bom.gov.au/fwo/IDS60801/IDS60801.94672.axf

JavaScript Object Notation format (JSON) in row-major order
http://www.bom.gov.au/fwo/IDS60801/IDS60801.94672.json